sensor_id;sensor_type;location;lat;lon;timestamp;temperature;humidity
17128;DHT22;8679;50.842;4.322;2022-08-16T00:01:49;21.00;99.90
17128;DHT22;8679;50.842;4.322;2022-08-16T00:04:15;21.00;99.90
17128;DHT22;8679;50.842;4.322;2022-08-16T00:06:40;20.90;99.90
17128;DHT22;8679;50.842;4.322;2022-08-16T00:09:07;20.90;99.90
17128;DHT22;8679;50.842;4.322;2022-08-16T00:11:34;20.90;99.90
17128;DHT22;8679;50.842;4.322;2022-08-16T00:14:00;20.90;99.90
17128;DHT22;8679;50.842;4.322;2022-08-16T00:16:27;20.90;99.90
17128;DHT22;8679;50.842;4.322;2022-08-16T00:18:53;20.90;99.90
17128;DHT22;8679;50.842;4.322;2022-08-16T00:21:19;20.80;99.90
17128;DHT22;8679;50.842;4.322;2022-08-16T00:23:45;20.90;99.90
17128;DHT22;8679;50.842;4.322;2022-08-16T00:26:10;20.80;99.90
17128;DHT22;8679;50.842;4.322;2022-08-16T00:28:36;20.80;99.90
17128;DHT22;8679;50.842;4.322;2022-08-16T00:31:02;20.70;99.90
17128;DHT22;8679;50.842;4.322;2022-08-16T00:33:28;20.70;99.90
17128;DHT22;8679;50.842;4.322;2022-08-16T00:35:53;20.70;99.90
17128;DHT22;8679;50.842;4.322;2022-08-16T00:38:19;20.70;99.90
17128;DHT22;8679;50.842;4.322;2022-08-16T00:40:49;20.70;99.90
17128;DHT22;8679;50.842;4.322;2022-08-16T00:43:20;20.70;99.90
17128;DHT22;8679;50.842;4.322;2022-08-16T00:46:12;20.70;99.90
17128;DHT22;8679;50.842;4.322;2022-08-16T00:48:40;20.70;99.90
17128;DHT22;8679;50.842;4.322;2022-08-16T00:51:08;20.60;99.90
17128;DHT22;8679;50.842;4.322;2022-08-16T00:53:34;20.60;99.90
17128;DHT22;8679;50.842;4.322;2022-08-16T00:56:05;20.60;99.90
17128;DHT22;8679;50.842;4.322;2022-08-16T00:58:36;20.60;99.90
17128;DHT22;8679;50.842;4.322;2022-08-16T01:01:06;20.60;99.90
17128;DHT22;8679;50.842;4.322;2022-08-16T01:03:33;20.50;99.90
17128;DHT22;8679;50.842;4.322;2022-08-16T01:06:00;20.50;99.90
17128;DHT22;8679;50.842;4.322;2022-08-16T01:08:27;20.50;99.90
17128;DHT22;8679;50.842;4.322;2022-08-16T01:10:53;20.40;99.90
17128;DHT22;8679;50.842;4.322;2022-08-16T01:13:25;20.40;99.90
17128;DHT22;8679;50.842;4.322;2022-08-16T01:15:58;20.40;99.90
17128;DHT22;8679;50.842;4.322;2022-08-16T01:18:29;20.30;99.90
17128;DHT22;8679;50.842;4.322;2022-08-16T01:24:26;20.30;99.90
17128;DHT22;8679;50.842;4.322;2022-08-16T01:26:45;20.30;99.90
17128;DHT22;8679;50.842;4.322;2022-08-16T01:29:17;20.30;99.90
17128;DHT22;8679;50.842;4.322;2022-08-16T01:31:44;20.30;99.90
17128;DHT22;8679;50.842;4.322;2022-08-16T01:34:13;20.30;99.90
17128;DHT22;8679;50.842;4.322;2022-08-16T01:36:39;20.20;99.90
17128;DHT22;8679;50.842;4.322;2022-08-16T01:39:10;20.20;99.90
17128;DHT22;8679;50.842;4.322;2022-08-16T01:41:36;20.20;99.90
17128;DHT22;8679;50.842;4.322;2022-08-16T01:44:02;20.20;99.90
17128;DHT22;8679;50.842;4.322;2022-08-16T01:48:59;20.10;99.90
17128;DHT22;8679;50.842;4.322;2022-08-16T01:51:27;20.00;99.90
17128;DHT22;8679;50.842;4.322;2022-08-16T01:53:53;20.00;99.90
17128;DHT22;8679;50.842;4.322;2022-08-16T01:56:20;20.00;99.90
17128;DHT22;8679;50.842;4.322;2022-08-16T01:58:47;20.00;99.90
17128;DHT22;8679;50.842;4.322;2022-08-16T02:01:12;19.90;99.90
17128;DHT22;8679;50.842;4.322;2022-08-16T02:03:38;19.90;99.90
17128;DHT22;8679;50.842;4.322;2022-08-16T02:06:05;19.80;99.90
17128;DHT22;8679;50.842;4.322;2022-08-16T02:08:31;19.90;99.90
17128;DHT22;8679;50.842;4.322;2022-08-16T02:10:57;19.80;99.90
17128;DHT22;8679;50.842;4.322;2022-08-16T02:13:23;19.90;99.90
17128;DHT22;8679;50.842;4.322;2022-08-16T02:15:48;19.80;99.90
17128;DHT22;8679;50.842;4.322;2022-08-16T02:18:14;19.80;99.90
17128;DHT22;8679;50.842;4.322;2022-08-16T02:20:42;19.80;99.90
17128;DHT22;8679;50.842;4.322;2022-08-16T02:23:11;19.80;99.90
17128;DHT22;8679;50.842;4.322;2022-08-16T02:25:37;19.90;99.90
17128;DHT22;8679;50.842;4.322;2022-08-16T02:28:03;20.00;99.90
17128;DHT22;8679;50.842;4.322;2022-08-16T02:30:31;19.90;99.90
17128;DHT22;8679;50.842;4.322;2022-08-16T02:32:56;19.90;99.90
17128;DHT22;8679;50.842;4.322;2022-08-16T02:35:23;19.90;99.90
17128;DHT22;8679;50.842;4.322;2022-08-16T02:37:50;19.90;99.90
17128;DHT22;8679;50.842;4.322;2022-08-16T02:40:18;19.90;99.90
17128;DHT22;8679;50.842;4.322;2022-08-16T02:42:45;19.90;99.90
17128;DHT22;8679;50.842;4.322;2022-08-16T02:45:11;19.90;99.90
17128;DHT22;8679;50.842;4.322;2022-08-16T02:47:37;19.90;99.90
17128;DHT22;8679;50.842;4.322;2022-08-16T02:50:04;19.90;99.90
17128;DHT22;8679;50.842;4.322;2022-08-16T02:52:30;19.90;99.90
17128;DHT22;8679;50.842;4.322;2022-08-16T02:54:56;19.80;99.90
17128;DHT22;8679;50.842;4.322;2022-08-16T02:57:22;19.80;99.90
17128;DHT22;8679;50.842;4.322;2022-08-16T02:59:48;19.80;99.90
17128;DHT22;8679;50.842;4.322;2022-08-16T03:02:15;19.80;99.90
17128;DHT22;8679;50.842;4.322;2022-08-16T03:04:41;19.80;99.90
17128;DHT22;8679;50.842;4.322;2022-08-16T03:07:09;19.80;99.90
17128;DHT22;8679;50.842;4.322;2022-08-16T03:09:36;19.80;99.90
17128;DHT22;8679;50.842;4.322;2022-08-16T03:12:03;19.70;99.90
17128;DHT22;8679;50.842;4.322;2022-08-16T03:14:30;19.70;99.90
17128;DHT22;8679;50.842;4.322;2022-08-16T03:16:56;19.70;99.90
17128;DHT22;8679;50.842;4.322;2022-08-16T03:19:22;19.70;99.90
17128;DHT22;8679;50.842;4.322;2022-08-16T03:21:48;19.60;99.90
17128;DHT22;8679;50.842;4.322;2022-08-16T03:24:14;19.60;99.90
17128;DHT22;8679;50.842;4.322;2022-08-16T03:26:39;19.60;99.90
17128;DHT22;8679;50.842;4.322;2022-08-16T03:29:05;19.60;99.90
17128;DHT22;8679;50.842;4.322;2022-08-16T03:31:31;19.60;99.90
17128;DHT22;8679;50.842;4.322;2022-08-16T03:33:57;19.50;99.90
17128;DHT22;8679;50.842;4.322;2022-08-16T03:36:22;19.50;99.90
17128;DHT22;8679;50.842;4.322;2022-08-16T03:38:49;19.50;99.90
17128;DHT22;8679;50.842;4.322;2022-08-16T03:41:15;19.50;99.90
17128;DHT22;8679;50.842;4.322;2022-08-16T03:43:41;19.50;99.90
17128;DHT22;8679;50.842;4.322;2022-08-16T03:46:07;19.40;99.90
17128;DHT22;8679;50.842;4.322;2022-08-16T03:48:36;19.40;99.90
17128;DHT22;8679;50.842;4.322;2022-08-16T03:51:05;19.40;99.90
17128;DHT22;8679;50.842;4.322;2022-08-16T03:53:32;19.40;99.90
17128;DHT22;8679;50.842;4.322;2022-08-16T03:55:58;19.40;99.90
17128;DHT22;8679;50.842;4.322;2022-08-16T03:58:24;19.40;99.90
17128;DHT22;8679;50.842;4.322;2022-08-16T04:00:50;19.40;99.90
17128;DHT22;8679;50.842;4.322;2022-08-16T04:03:15;19.30;99.90
17128;DHT22;8679;50.842;4.322;2022-08-16T04:05:44;19.30;99.90
17128;DHT22;8679;50.842;4.322;2022-08-16T04:08:12;19.30;99.90
17128;DHT22;8679;50.842;4.322;2022-08-16T04:10:38;19.30;99.90
17128;DHT22;8679;50.842;4.322;2022-08-16T04:13:04;19.30;99.90
17128;DHT22;8679;50.842;4.322;2022-08-16T04:15:30;19.30;99.90
17128;DHT22;8679;50.842;4.322;2022-08-16T04:17:57;19.30;99.90
17128;DHT22;8679;50.842;4.322;2022-08-16T04:20:23;19.30;99.90
17128;DHT22;8679;50.842;4.322;2022-08-16T04:22:50;19.30;99.90
17128;DHT22;8679;50.842;4.322;2022-08-16T04:25:16;19.30;99.90
17128;DHT22;8679;50.842;4.322;2022-08-16T04:27:42;19.30;99.90
17128;DHT22;8679;50.842;4.322;2022-08-16T04:30:12;19.30;99.90
17128;DHT22;8679;50.842;4.322;2022-08-16T04:32:38;19.30;99.90
17128;DHT22;8679;50.842;4.322;2022-08-16T04:35:07;19.30;99.90
17128;DHT22;8679;50.842;4.322;2022-08-16T04:37:33;19.30;99.90
17128;DHT22;8679;50.842;4.322;2022-08-16T04:39:58;19.30;99.90
17128;DHT22;8679;50.842;4.322;2022-08-16T04:42:25;19.30;99.90
17128;DHT22;8679;50.842;4.322;2022-08-16T04:44:51;19.30;99.90
17128;DHT22;8679;50.842;4.322;2022-08-16T04:47:17;19.30;99.90
17128;DHT22;8679;50.842;4.322;2022-08-16T04:49:43;19.30;99.90
17128;DHT22;8679;50.842;4.322;2022-08-16T04:52:09;19.30;99.90
17128;DHT22;8679;50.842;4.322;2022-08-16T04:54:34;19.30;99.90
17128;DHT22;8679;50.842;4.322;2022-08-16T04:57:00;19.40;99.90
17128;DHT22;8679;50.842;4.322;2022-08-16T04:59:25;19.40;99.90
17128;DHT22;8679;50.842;4.322;2022-08-16T05:01:51;19.40;99.90
17128;DHT22;8679;50.842;4.322;2022-08-16T05:04:22;19.40;99.90
17128;DHT22;8679;50.842;4.322;2022-08-16T05:06:48;19.40;99.90
17128;DHT22;8679;50.842;4.322;2022-08-16T05:09:14;19.40;99.90
17128;DHT22;8679;50.842;4.322;2022-08-16T05:11:40;19.40;99.90
17128;DHT22;8679;50.842;4.322;2022-08-16T05:14:05;19.40;99.90
17128;DHT22;8679;50.842;4.322;2022-08-16T05:16:31;19.40;99.90
17128;DHT22;8679;50.842;4.322;2022-08-16T05:18:59;19.40;99.90
17128;DHT22;8679;50.842;4.322;2022-08-16T05:21:27;19.50;99.90
17128;DHT22;8679;50.842;4.322;2022-08-16T05:23:53;19.50;99.90
17128;DHT22;8679;50.842;4.322;2022-08-16T05:26:20;19.60;99.90
17128;DHT22;8679;50.842;4.322;2022-08-16T05:28:46;19.60;99.90
17128;DHT22;8679;50.842;4.322;2022-08-16T05:31:12;19.60;99.90
17128;DHT22;8679;50.842;4.322;2022-08-16T05:33:38;19.60;99.90
17128;DHT22;8679;50.842;4.322;2022-08-16T05:36:04;19.70;99.90
17128;DHT22;8679;50.842;4.322;2022-08-16T05:38:29;19.70;99.90
17128;DHT22;8679;50.842;4.322;2022-08-16T05:40:57;19.80;99.90
17128;DHT22;8679;50.842;4.322;2022-08-16T05:43:23;19.90;99.90
17128;DHT22;8679;50.842;4.322;2022-08-16T05:45:50;19.90;99.90
17128;DHT22;8679;50.842;4.322;2022-08-16T05:48:16;19.90;99.90
17128;DHT22;8679;50.842;4.322;2022-08-16T05:50:41;19.90;99.90
17128;DHT22;8679;50.842;4.322;2022-08-16T05:53:07;20.00;99.90
17128;DHT22;8679;50.842;4.322;2022-08-16T05:55:33;20.10;99.90
17128;DHT22;8679;50.842;4.322;2022-08-16T05:57:59;20.10;99.90
17128;DHT22;8679;50.842;4.322;2022-08-16T06:00:24;20.10;99.90
17128;DHT22;8679;50.842;4.322;2022-08-16T06:02:51;20.20;99.90
17128;DHT22;8679;50.842;4.322;2022-08-16T06:05:17;20.20;99.90
17128;DHT22;8679;50.842;4.322;2022-08-16T06:07:43;20.30;99.90
17128;DHT22;8679;50.842;4.322;2022-08-16T06:10:10;20.40;99.90
17128;DHT22;8679;50.842;4.322;2022-08-16T06:12:36;20.60;99.90
17128;DHT22;8679;50.842;4.322;2022-08-16T06:15:08;20.60;99.90
17128;DHT22;8679;50.842;4.322;2022-08-16T06:17:35;20.70;99.90
17128;DHT22;8679;50.842;4.322;2022-08-16T06:20:03;20.70;99.90
17128;DHT22;8679;50.842;4.322;2022-08-16T06:22:30;20.80;99.90
17128;DHT22;8679;50.842;4.322;2022-08-16T06:24:56;20.90;99.90
17128;DHT22;8679;50.842;4.322;2022-08-16T06:27:21;21.00;99.90
17128;DHT22;8679;50.842;4.322;2022-08-16T06:29:47;21.00;99.90
17128;DHT22;8679;50.842;4.322;2022-08-16T06:32:13;21.10;99.90
17128;DHT22;8679;50.842;4.322;2022-08-16T06:34:39;21.00;99.90
17128;DHT22;8679;50.842;4.322;2022-08-16T06:37:05;21.00;99.90
17128;DHT22;8679;50.842;4.322;2022-08-16T06:39:31;21.00;99.90
17128;DHT22;8679;50.842;4.322;2022-08-16T06:41:57;20.90;99.90
17128;DHT22;8679;50.842;4.322;2022-08-16T06:44:23;21.00;99.90
17128;DHT22;8679;50.842;4.322;2022-08-16T06:46:49;21.00;99.90
17128;DHT22;8679;50.842;4.322;2022-08-16T06:49:15;21.00;99.90
17128;DHT22;8679;50.842;4.322;2022-08-16T06:51:41;21.10;99.90
17128;DHT22;8679;50.842;4.322;2022-08-16T06:54:07;21.30;99.90
17128;DHT22;8679;50.842;4.322;2022-08-16T06:56:34;21.30;99.90
17128;DHT22;8679;50.842;4.322;2022-08-16T06:59:00;21.40;99.90
17128;DHT22;8679;50.842;4.322;2022-08-16T07:01:25;21.50;99.90
17128;DHT22;8679;50.842;4.322;2022-08-16T07:03:51;21.50;99.90
17128;DHT22;8679;50.842;4.322;2022-08-16T07:06:17;21.60;99.90
17128;DHT22;8679;50.842;4.322;2022-08-16T07:08:45;21.70;99.90
17128;DHT22;8679;50.842;4.322;2022-08-16T07:11:12;21.90;99.90
17128;DHT22;8679;50.842;4.322;2022-08-16T07:13:39;22.10;99.90
17128;DHT22;8679;50.842;4.322;2022-08-16T07:16:06;22.40;99.90
17128;DHT22;8679;50.842;4.322;2022-08-16T07:18:36;22.50;99.90
17128;DHT22;8679;50.842;4.322;2022-08-16T07:21:02;22.70;99.90
17128;DHT22;8679;50.842;4.322;2022-08-16T07:23:28;22.80;99.90
17128;DHT22;8679;50.842;4.322;2022-08-16T07:25:54;22.80;99.90
17128;DHT22;8679;50.842;4.322;2022-08-16T07:28:20;22.90;99.90
17128;DHT22;8679;50.842;4.322;2022-08-16T07:30:46;22.90;99.90
17128;DHT22;8679;50.842;4.322;2022-08-16T07:33:12;23.00;99.90
17128;DHT22;8679;50.842;4.322;2022-08-16T07:35:39;23.10;99.90
17128;DHT22;8679;50.842;4.322;2022-08-16T07:38:06;23.10;99.90
17128;DHT22;8679;50.842;4.322;2022-08-16T07:40:33;23.20;99.90
17128;DHT22;8679;50.842;4.322;2022-08-16T07:42:59;23.20;99.90
17128;DHT22;8679;50.842;4.322;2022-08-16T07:45:25;23.40;99.90
17128;DHT22;8679;50.842;4.322;2022-08-16T07:47:50;23.40;99.90
17128;DHT22;8679;50.842;4.322;2022-08-16T07:50:16;23.40;99.90
17128;DHT22;8679;50.842;4.322;2022-08-16T07:52:43;23.40;99.90
17128;DHT22;8679;50.842;4.322;2022-08-16T07:55:11;23.50;99.90
17128;DHT22;8679;50.842;4.322;2022-08-16T07:57:40;23.60;99.90
17128;DHT22;8679;50.842;4.322;2022-08-16T08:00:07;23.70;99.90
17128;DHT22;8679;50.842;4.322;2022-08-16T08:02:33;23.80;99.90
17128;DHT22;8679;50.842;4.322;2022-08-16T08:04:59;23.80;99.90
17128;DHT22;8679;50.842;4.322;2022-08-16T08:07:25;24.00;99.90
17128;DHT22;8679;50.842;4.322;2022-08-16T08:09:51;23.90;99.90
17128;DHT22;8679;50.842;4.322;2022-08-16T08:12:17;23.90;99.90
17128;DHT22;8679;50.842;4.322;2022-08-16T08:14:45;23.90;99.90
17128;DHT22;8679;50.842;4.322;2022-08-16T08:17:11;24.00;99.90
17128;DHT22;8679;50.842;4.322;2022-08-16T08:19:37;24.10;99.90
17128;DHT22;8679;50.842;4.322;2022-08-16T08:22:04;24.00;99.90
17128;DHT22;8679;50.842;4.322;2022-08-16T08:24:29;24.10;99.90
17128;DHT22;8679;50.842;4.322;2022-08-16T08:26:59;24.00;99.90
17128;DHT22;8679;50.842;4.322;2022-08-16T08:29:25;24.00;99.90
17128;DHT22;8679;50.842;4.322;2022-08-16T08:31:51;24.10;99.90
17128;DHT22;8679;50.842;4.322;2022-08-16T08:34:17;24.20;99.90
17128;DHT22;8679;50.842;4.322;2022-08-16T08:36:43;24.20;99.90
17128;DHT22;8679;50.842;4.322;2022-08-16T08:39:09;24.30;99.90
17128;DHT22;8679;50.842;4.322;2022-08-16T08:41:35;24.30;99.90
17128;DHT22;8679;50.842;4.322;2022-08-16T08:44:01;24.40;99.90
17128;DHT22;8679;50.842;4.322;2022-08-16T08:46:27;24.40;99.90
17128;DHT22;8679;50.842;4.322;2022-08-16T08:48:53;24.60;99.90
17128;DHT22;8679;50.842;4.322;2022-08-16T08:51:19;24.70;99.90
17128;DHT22;8679;50.842;4.322;2022-08-16T08:53:45;24.70;99.90
17128;DHT22;8679;50.842;4.322;2022-08-16T08:56:12;24.80;99.90
17128;DHT22;8679;50.842;4.322;2022-08-16T08:58:38;24.90;99.90
17128;DHT22;8679;50.842;4.322;2022-08-16T09:01:05;25.00;99.90
17128;DHT22;8679;50.842;4.322;2022-08-16T09:03:35;25.00;99.90
17128;DHT22;8679;50.842;4.322;2022-08-16T09:06:03;25.20;99.90
17128;DHT22;8679;50.842;4.322;2022-08-16T09:08:29;25.20;99.90
17128;DHT22;8679;50.842;4.322;2022-08-16T09:10:57;25.30;99.90
17128;DHT22;8679;50.842;4.322;2022-08-16T09:13:24;25.40;99.90
17128;DHT22;8679;50.842;4.322;2022-08-16T09:15:51;25.40;99.90
17128;DHT22;8679;50.842;4.322;2022-08-16T09:18:17;25.60;99.90
17128;DHT22;8679;50.842;4.322;2022-08-16T09:20:44;25.50;99.90
17128;DHT22;8679;50.842;4.322;2022-08-16T09:23:11;25.50;99.90
17128;DHT22;8679;50.842;4.322;2022-08-16T09:25:37;25.60;99.90
17128;DHT22;8679;50.842;4.322;2022-08-16T09:28:04;25.70;99.90
17128;DHT22;8679;50.842;4.322;2022-08-16T09:30:31;25.70;99.90
17128;DHT22;8679;50.842;4.322;2022-08-16T09:33:00;25.70;99.90
17128;DHT22;8679;50.842;4.322;2022-08-16T09:35:26;25.60;99.90
17128;DHT22;8679;50.842;4.322;2022-08-16T09:37:52;25.60;99.90
17128;DHT22;8679;50.842;4.322;2022-08-16T09:40:18;25.40;99.90
17128;DHT22;8679;50.842;4.322;2022-08-16T09:42:44;25.60;99.90
17128;DHT22;8679;50.842;4.322;2022-08-16T09:45:10;25.50;99.90
17128;DHT22;8679;50.842;4.322;2022-08-16T09:47:37;25.50;99.90
17128;DHT22;8679;50.842;4.322;2022-08-16T09:50:06;25.60;99.90
17128;DHT22;8679;50.842;4.322;2022-08-16T09:52:32;25.60;99.90
17128;DHT22;8679;50.842;4.322;2022-08-16T09:55:00;25.70;99.90
17128;DHT22;8679;50.842;4.322;2022-08-16T09:57:28;25.70;99.90
17128;DHT22;8679;50.842;4.322;2022-08-16T09:59:53;25.70;99.90
17128;DHT22;8679;50.842;4.322;2022-08-16T10:02:20;25.80;99.90
17128;DHT22;8679;50.842;4.322;2022-08-16T10:04:45;25.80;99.90
17128;DHT22;8679;50.842;4.322;2022-08-16T10:07:11;25.60;99.90
17128;DHT22;8679;50.842;4.322;2022-08-16T10:09:36;25.60;99.90
17128;DHT22;8679;50.842;4.322;2022-08-16T10:12:02;25.80;99.90
17128;DHT22;8679;50.842;4.322;2022-08-16T10:14:47;25.90;99.90
17128;DHT22;8679;50.842;4.322;2022-08-16T10:17:12;25.90;99.90
17128;DHT22;8679;50.842;4.322;2022-08-16T10:19:38;25.90;99.90
17128;DHT22;8679;50.842;4.322;2022-08-16T10:22:04;25.80;99.90
17128;DHT22;8679;50.842;4.322;2022-08-16T10:24:30;25.80;99.90
17128;DHT22;8679;50.842;4.322;2022-08-16T10:26:55;25.80;99.90
17128;DHT22;8679;50.842;4.322;2022-08-16T10:29:22;25.80;99.90
17128;DHT22;8679;50.842;4.322;2022-08-16T10:31:48;25.80;99.90
17128;DHT22;8679;50.842;4.322;2022-08-16T10:34:14;26.00;99.90
17128;DHT22;8679;50.842;4.322;2022-08-16T10:36:40;26.00;99.90
17128;DHT22;8679;50.842;4.322;2022-08-16T10:39:06;25.80;99.90
17128;DHT22;8679;50.842;4.322;2022-08-16T10:41:32;26.00;99.90
17128;DHT22;8679;50.842;4.322;2022-08-16T10:43:58;26.10;99.90
17128;DHT22;8679;50.842;4.322;2022-08-16T10:46:24;26.30;99.90
17128;DHT22;8679;50.842;4.322;2022-08-16T10:48:50;26.30;99.90
17128;DHT22;8679;50.842;4.322;2022-08-16T10:51:16;26.20;99.90
17128;DHT22;8679;50.842;4.322;2022-08-16T10:53:43;26.30;99.90
17128;DHT22;8679;50.842;4.322;2022-08-16T10:56:11;26.40;99.90
17128;DHT22;8679;50.842;4.322;2022-08-16T10:58:37;26.50;99.90
17128;DHT22;8679;50.842;4.322;2022-08-16T11:01:06;26.40;99.90
17128;DHT22;8679;50.842;4.322;2022-08-16T11:03:33;26.40;99.90
17128;DHT22;8679;50.842;4.322;2022-08-16T11:05:59;26.40;99.90
17128;DHT22;8679;50.842;4.322;2022-08-16T11:08:25;26.30;99.90
17128;DHT22;8679;50.842;4.322;2022-08-16T11:10:51;26.10;99.90
17128;DHT22;8679;50.842;4.322;2022-08-16T11:13:21;26.20;99.90
17128;DHT22;8679;50.842;4.322;2022-08-16T11:15:47;26.20;99.90
17128;DHT22;8679;50.842;4.322;2022-08-16T11:18:13;26.20;99.90
17128;DHT22;8679;50.842;4.322;2022-08-16T11:20:40;26.30;99.90
17128;DHT22;8679;50.842;4.322;2022-08-16T11:23:07;26.30;99.90
17128;DHT22;8679;50.842;4.322;2022-08-16T11:25:33;26.60;99.90
17128;DHT22;8679;50.842;4.322;2022-08-16T11:28:00;26.70;99.90
17128;DHT22;8679;50.842;4.322;2022-08-16T11:30:27;26.90;99.90
17128;DHT22;8679;50.842;4.322;2022-08-16T11:32:54;26.80;99.90
17128;DHT22;8679;50.842;4.322;2022-08-16T11:35:24;27.00;99.90
17128;DHT22;8679;50.842;4.322;2022-08-16T11:38:03;27.10;99.90
17128;DHT22;8679;50.842;4.322;2022-08-16T11:40:36;27.20;99.90
17128;DHT22;8679;50.842;4.322;2022-08-16T11:43:03;26.90;99.90
17128;DHT22;8679;50.842;4.322;2022-08-16T11:45:29;26.90;99.90
17128;DHT22;8679;50.842;4.322;2022-08-16T11:47:54;26.90;99.90
17128;DHT22;8679;50.842;4.322;2022-08-16T11:50:20;27.10;99.90
17128;DHT22;8679;50.842;4.322;2022-08-16T11:52:47;27.30;99.90
17128;DHT22;8679;50.842;4.322;2022-08-16T11:55:13;27.50;99.90
17128;DHT22;8679;50.842;4.322;2022-08-16T11:57:41;27.60;99.90
17128;DHT22;8679;50.842;4.322;2022-08-16T12:00:11;27.70;99.90
17128;DHT22;8679;50.842;4.322;2022-08-16T12:02:38;27.80;99.90
17128;DHT22;8679;50.842;4.322;2022-08-16T12:05:08;27.90;99.90
17128;DHT22;8679;50.842;4.322;2022-08-16T12:07:34;28.20;99.90
17128;DHT22;8679;50.842;4.322;2022-08-16T12:10:02;28.00;99.90
17128;DHT22;8679;50.842;4.322;2022-08-16T12:12:29;27.90;99.90
17128;DHT22;8679;50.842;4.322;2022-08-16T12:14:54;28.10;99.90
17128;DHT22;8679;50.842;4.322;2022-08-16T12:17:20;28.10;99.90
17128;DHT22;8679;50.842;4.322;2022-08-16T12:19:47;28.30;99.90
17128;DHT22;8679;50.842;4.322;2022-08-16T12:22:13;28.40;99.90
17128;DHT22;8679;50.842;4.322;2022-08-16T12:24:40;28.60;99.90
17128;DHT22;8679;50.842;4.322;2022-08-16T12:27:06;28.60;99.90
17128;DHT22;8679;50.842;4.322;2022-08-16T12:29:32;28.80;99.90
17128;DHT22;8679;50.842;4.322;2022-08-16T12:31:58;28.90;99.90
17128;DHT22;8679;50.842;4.322;2022-08-16T12:34:24;29.20;99.90
17128;DHT22;8679;50.842;4.322;2022-08-16T12:36:50;29.40;99.90
17128;DHT22;8679;50.842;4.322;2022-08-16T12:39:16;29.40;99.90
17128;DHT22;8679;50.842;4.322;2022-08-16T12:41:45;29.30;99.90
17128;DHT22;8679;50.842;4.322;2022-08-16T12:44:12;29.10;99.90
17128;DHT22;8679;50.842;4.322;2022-08-16T12:46:38;29.00;99.90
17128;DHT22;8679;50.842;4.322;2022-08-16T12:49:04;29.40;99.90
17128;DHT22;8679;50.842;4.322;2022-08-16T12:51:38;29.60;99.90
17128;DHT22;8679;50.842;4.322;2022-08-16T12:54:06;29.40;99.90
17128;DHT22;8679;50.842;4.322;2022-08-16T12:56:35;29.20;99.90
17128;DHT22;8679;50.842;4.322;2022-08-16T12:59:06;29.20;99.90
17128;DHT22;8679;50.842;4.322;2022-08-16T13:01:34;29.60;99.90
17128;DHT22;8679;50.842;4.322;2022-08-16T13:04:03;29.80;99.90
17128;DHT22;8679;50.842;4.322;2022-08-16T13:06:31;30.00;99.90
17128;DHT22;8679;50.842;4.322;2022-08-16T13:08:57;30.20;99.90
17128;DHT22;8679;50.842;4.322;2022-08-16T13:11:34;30.20;99.90
17128;DHT22;8679;50.842;4.322;2022-08-16T13:14:00;30.40;99.90
17128;DHT22;8679;50.842;4.322;2022-08-16T13:16:27;30.50;99.90
17128;DHT22;8679;50.842;4.322;2022-08-16T13:18:53;30.50;99.90
17128;DHT22;8679;50.842;4.322;2022-08-16T13:21:18;30.60;99.90
17128;DHT22;8679;50.842;4.322;2022-08-16T13:23:44;30.50;99.90
17128;DHT22;8679;50.842;4.322;2022-08-16T13:26:10;30.50;99.90
17128;DHT22;8679;50.842;4.322;2022-08-16T13:28:37;30.70;99.90
17128;DHT22;8679;50.842;4.322;2022-08-16T13:31:02;31.00;99.90
17128;DHT22;8679;50.842;4.322;2022-08-16T13:33:31;30.90;99.90
17128;DHT22;8679;50.842;4.322;2022-08-16T13:36:06;30.60;99.90
17128;DHT22;8679;50.842;4.322;2022-08-16T13:38:36;30.30;99.90
17128;DHT22;8679;50.842;4.322;2022-08-16T13:41:06;30.60;99.90
17128;DHT22;8679;50.842;4.322;2022-08-16T13:43:32;30.90;99.90
17128;DHT22;8679;50.842;4.322;2022-08-16T13:45:58;30.60;99.90
17128;DHT22;8679;50.842;4.322;2022-08-16T13:48:27;30.50;99.90
17128;DHT22;8679;50.842;4.322;2022-08-16T13:50:55;30.40;99.90
17128;DHT22;8679;50.842;4.322;2022-08-16T13:53:21;30.10;99.90
17128;DHT22;8679;50.842;4.322;2022-08-16T13:55:46;29.70;99.90
17128;DHT22;8679;50.842;4.322;2022-08-16T13:58:12;29.30;99.90
17128;DHT22;8679;50.842;4.322;2022-08-16T14:00:38;29.10;99.90
17128;DHT22;8679;50.842;4.322;2022-08-16T14:03:06;29.20;99.90
17128;DHT22;8679;50.842;4.322;2022-08-16T14:05:32;29.10;99.90
17128;DHT22;8679;50.842;4.322;2022-08-16T14:07:58;29.00;99.90
17128;DHT22;8679;50.842;4.322;2022-08-16T14:10:23;29.10;99.90
17128;DHT22;8679;50.842;4.322;2022-08-16T14:12:50;29.00;99.90
17128;DHT22;8679;50.842;4.322;2022-08-16T14:15:16;29.30;99.90
17128;DHT22;8679;50.842;4.322;2022-08-16T14:17:43;29.40;99.90
17128;DHT22;8679;50.842;4.322;2022-08-16T14:20:10;29.70;99.90
17128;DHT22;8679;50.842;4.322;2022-08-16T14:22:37;29.90;99.90
17128;DHT22;8679;50.842;4.322;2022-08-16T14:25:06;29.90;99.90
17128;DHT22;8679;50.842;4.322;2022-08-16T14:27:33;30.10;99.90
17128;DHT22;8679;50.842;4.322;2022-08-16T14:29:59;30.20;99.90
17128;DHT22;8679;50.842;4.322;2022-08-16T14:32:27;30.40;99.90
17128;DHT22;8679;50.842;4.322;2022-08-16T14:34:54;30.20;99.90
17128;DHT22;8679;50.842;4.322;2022-08-16T14:37:21;30.20;99.90
17128;DHT22;8679;50.842;4.322;2022-08-16T14:39:47;30.80;99.90
17128;DHT22;8679;50.842;4.322;2022-08-16T14:42:15;30.80;99.20
17128;DHT22;8679;50.842;4.322;2022-08-16T14:44:45;30.70;99.70
17128;DHT22;8679;50.842;4.322;2022-08-16T14:47:12;30.90;98.90
17128;DHT22;8679;50.842;4.322;2022-08-16T14:49:38;30.90;98.30
17128;DHT22;8679;50.842;4.322;2022-08-16T14:52:07;30.70;98.60
17128;DHT22;8679;50.842;4.322;2022-08-16T14:54:34;31.00;98.90
17128;DHT22;8679;50.842;4.322;2022-08-16T14:56:59;31.60;97.50
17128;DHT22;8679;50.842;4.322;2022-08-16T14:59:25;31.60;98.00
17128;DHT22;8679;50.842;4.322;2022-08-16T15:01:53;32.20;95.30
17128;DHT22;8679;50.842;4.322;2022-08-16T15:04:19;31.70;94.30
17128;DHT22;8679;50.842;4.322;2022-08-16T15:06:45;31.20;95.20
17128;DHT22;8679;50.842;4.322;2022-08-16T15:09:11;31.00;95.50
17128;DHT22;8679;50.842;4.322;2022-08-16T15:11:37;31.10;95.50
17128;DHT22;8679;50.842;4.322;2022-08-16T15:14:04;31.40;95.00
17128;DHT22;8679;50.842;4.322;2022-08-16T15:16:30;31.70;94.40
17128;DHT22;8679;50.842;4.322;2022-08-16T15:18:57;31.90;93.40
17128;DHT22;8679;50.842;4.322;2022-08-16T15:21:27;31.90;93.20
17128;DHT22;8679;50.842;4.322;2022-08-16T15:23:54;32.70;92.60
17128;DHT22;8679;50.842;4.322;2022-08-16T15:26:20;33.00;90.40
17128;DHT22;8679;50.842;4.322;2022-08-16T15:28:46;33.30;89.60
17128;DHT22;8679;50.842;4.322;2022-08-16T15:31:12;34.10;85.50
17128;DHT22;8679;50.842;4.322;2022-08-16T15:33:42;34.20;81.70
17128;DHT22;8679;50.842;4.322;2022-08-16T15:36:08;33.30;81.00
17128;DHT22;8679;50.842;4.322;2022-08-16T15:38:34;32.40;84.60
17128;DHT22;8679;50.842;4.322;2022-08-16T15:41:00;32.50;85.40
17128;DHT22;8679;50.842;4.322;2022-08-16T15:43:27;33.40;82.90
17128;DHT22;8679;50.842;4.322;2022-08-16T15:45:52;34.40;77.20
17128;DHT22;8679;50.842;4.322;2022-08-16T15:48:37;35.20;71.60